Time;durP1;ratioP1;P1;durP2;ratioP2;P2;SDS_P1;SDS_P2;PMS_P1;PMS_P2;Temp;Humidity;BMP_temperature;BMP_pressure;BME280_temperature;BME280_humidity;BME280_pressure;Samples;Min_cycle;Max_cycle;Signal;HPM_P1;HPM_P2
2023/03/01 00:00:26;;;;;;;7.95;5.05;;;4.80;96.80;;;;;;5055851;28;20548;-68
2023/03/01 00:02:52;;;;;;;6.65;4.45;;;4.80;96.80;;;;;;5050372;28;20251;-68
2023/03/01 00:05:20;;;;;;;8.95;5.15;;;4.80;96.80;;;;;;5071153;28;20176;-69
2023/03/01 00:07:46;;;;;;;5.60;4.70;;;5.10;97.00;;;;;;5070042;28;20685;-68
2023/03/01 00:10:14;;;;;;;6.20;5.63;;;4.80;96.80;;;;;;5061972;28;20408;-68
2023/03/01 00:12:44;;;;;;;7.22;5.40;;;4.80;96.80;;;;;;5053553;28;20208;-68
2023/03/01 00:15:12;;;;;;;7.32;5.70;;;4.80;96.80;;;;;;5070795;28;20152;-68
2023/03/01 00:17:39;;;;;;;7.25;4.60;;;4.70;96.80;;;;;;5070914;28;20263;-68
2023/03/01 00:20:10;;;;;;;5.50;4.85;;;4.80;96.80;;;;;;5050718;28;20205;-69
2023/03/01 00:22:36;;;;;;;6.88;5.93;;;4.80;96.80;;;;;;5064904;28;20237;-69
2023/03/01 00:25:05;;;;;;;12.70;5.35;;;4.70;96.70;;;;;;5058794;28;20176;-69
2023/03/01 00:27:31;;;;;;;7.68;5.25;;;4.70;96.70;;;;;;5073949;28;20266;-68
2023/03/01 00:29:57;;;;;;;5.83;5.20;;;4.70;96.70;;;;;;5057556;28;20193;-69
2023/03/01 00:32:23;;;;;;;5.93;4.75;;;4.70;96.70;;;;;;5075578;28;20812;-69
2023/03/01 00:34:54;;;;;;;7.28;5.10;;;4.70;96.70;;;;;;5065924;28;20188;-68
2023/03/01 00:37:26;;;;;;;6.60;5.43;;;4.70;96.70;;;;;;5055576;28;20326;-69
2023/03/01 00:39:52;;;;;;;6.32;5.10;;;4.70;96.80;;;;;;5063689;28;20187;-68
2023/03/01 00:42:21;;;;;;;6.10;5.03;;;4.70;96.80;;;;;;5072491;28;20268;-68
2023/03/01 00:44:50;;;;;;;8.00;5.57;;;4.70;96.70;;;;;;5040110;28;20284;-68
2023/03/01 00:47:16;;;;;;;7.57;5.00;;;4.70;96.70;;;;;;5054481;28;20330;-69
2023/03/01 00:49:44;;;;;;;6.13;5.00;;;4.70;96.70;;;;;;5054368;28;20425;-69
2023/03/01 00:52:10;;;;;;;5.95;4.75;;;4.70;96.80;;;;;;5046075;28;20192;-68
2023/03/01 00:54:38;;;;;;;6.05;4.60;;;4.70;96.80;;;;;;5039469;28;20284;-68
2023/03/01 00:57:06;;;;;;;5.97;5.00;;;4.60;96.70;;;;;;5035051;28;20553;-68
2023/03/01 00:59:35;;;;;;;5.72;5.00;;;4.60;96.80;;;;;;5058097;28;20515;-68
2023/03/01 01:02:01;;;;;;;7.73;5.10;;;4.60;96.80;;;;;;5045197;28;20222;-68
2023/03/01 01:04:29;;;;;;;6.90;5.65;;;4.70;96.80;;;;;;5070096;28;20419;-68
2023/03/01 01:06:55;;;;;;;7.80;5.30;;;4.60;96.80;;;;;;5064056;28;20200;-68
2023/03/01 01:09:21;;;;;;;5.95;5.35;;;4.70;97.20;;;;;;5053897;28;20490;-68
2023/03/01 01:11:51;;;;;;;7.60;5.57;;;4.60;96.80;;;;;;5062532;28;20223;-69
2023/03/01 01:14:19;;;;;;;10.10;5.32;;;4.60;96.80;;;;;;5037454;28;20392;-68
2023/03/01 01:16:44;;;;;;;7.88;5.43;;;4.60;96.80;;;;;;5072371;28;20195;-68
2023/03/01 01:19:11;;;;;;;6.40;5.80;;;4.60;96.80;;;;;;5069573;28;20693;-68
2023/03/01 01:21:42;;;;;;;7.57;6.18;;;4.60;96.80;;;;;;5062261;28;20417;-67
2023/03/01 01:24:11;;;;;;;7.25;5.65;;;4.60;96.80;;;;;;5053462;28;20283;-69
2023/03/01 01:26:39;;;;;;;7.00;5.45;;;4.60;96.80;;;;;;5037307;28;20681;-69
2023/03/01 01:29:06;;;;;;;6.25;5.13;;;4.60;96.80;;;;;;5037278;28;20203;-68
2023/03/01 01:31:36;;;;;;;6.93;6.15;;;4.60;96.80;;;;;;5053717;28;20235;-69
2023/03/01 01:34:06;;;;;;;6.47;5.60;;;4.50;96.70;;;;;;5047177;28;20237;-68
2023/03/01 01:36:33;;;;;;;7.45;6.13;;;4.50;96.70;;;;;;5056059;28;20175;-69
2023/03/01 01:39:00;;;;;;;6.90;5.10;;;4.50;96.80;;;;;;5070849;28;20249;-68
2023/03/01 01:41:28;;;;;;;8.10;5.40;;;4.50;96.80;;;;;;5065649;28;20231;-68
2023/03/01 01:44:13;;;;;;;6.70;5.22;;;4.50;96.80;;;;;;5053544;28;20173;-68
2023/03/01 01:46:42;;;;;;;7.15;6.13;;;4.50;96.80;;;;;;5057242;28;20223;-68
2023/03/01 01:49:38;;;;;;;7.32;5.55;;;4.50;96.70;;;;;;5054439;28;20207;-68
2023/03/01 01:52:25;;;;;;;8.65;5.75;;;4.50;96.80;;;;;;5047978;28;20176;-69
2023/03/01 01:55:04;;;;;;;6.20;5.50;;;4.50;97.10;;;;;;5070016;28;20211;-68
2023/03/01 01:57:44;;;;;;;9.38;5.80;;;4.50;96.80;;;;;;5041131;28;20742;-68
2023/03/01 02:00:15;;;;;;;6.65;5.72;;;4.50;96.80;;;;;;5069364;28;20169;-68
2023/03/01 02:02:42;;;;;;;9.15;5.50;;;4.40;96.80;;;;;;5053349;28;20173;-69
2023/03/01 02:05:26;;;;;;;6.93;5.80;;;4.40;96.80;;;;;;5040255;28;20184;-69
2023/03/01 02:07:52;;;;;;;7.38;5.60;;;4.40;96.80;;;;;;5071913;28;20382;-68
2023/03/01 02:10:21;;;;;;;7.95;5.80;;;4.40;96.80;;;;;;5056354;28;20207;-68
2023/03/01 02:12:47;;;;;;;7.53;5.80;;;4.40;96.80;;;;;;5051642;28;20225;-68
2023/03/01 02:15:13;;;;;;;6.97;5.28;;;4.40;96.80;;;;;;5072945;28;20200;-68
2023/03/01 02:17:41;;;;;;;7.60;5.50;;;4.40;96.70;;;;;;5050129;28;20338;-68
2023/03/01 02:20:16;;;;;;;7.55;6.28;;;4.40;96.70;;;;;;5052635;28;20538;-68
2023/03/01 02:22:44;;;;;;;6.78;5.60;;;4.40;96.80;;;;;;5052309;28;20208;-68
2023/03/01 02:25:20;;;;;;;7.00;5.95;;;4.40;96.80;;;;;;5055448;28;20180;-68
2023/03/01 02:28:08;;;;;;;6.15;4.90;;;4.40;96.80;;;;;;5056127;28;20200;-68
2023/03/01 02:30:37;;;;;;;6.15;5.47;;;4.40;96.80;;;;;;5052286;28;20652;-67
2023/03/01 02:33:04;;;;;;;6.30;5.18;;;4.40;96.80;;;;;;5071330;28;20609;-68
2023/03/01 02:35:35;;;;;;;6.60;5.18;;;4.30;96.80;;;;;;5064032;28;20222;-68
2023/03/01 02:38:03;;;;;;;8.15;5.80;;;4.30;96.80;;;;;;5052388;28;20298;-68
2023/03/01 02:40:31;;;;;;;8.27;6.03;;;4.30;96.80;;;;;;5050247;28;20192;-67
2023/03/01 02:43:00;;;;;;;7.20;5.95;;;4.30;96.80;;;;;;5039638;28;20202;-69
2023/03/01 02:45:29;;;;;;;9.25;6.13;;;4.30;96.80;;;;;;5067337;28;20204;-69
2023/03/01 02:47:58;;;;;;;9.32;5.93;;;4.30;96.80;;;;;;5055532;28;20294;-69
2023/03/01 02:50:29;;;;;;;7.43;6.30;;;4.30;96.80;;;;;;5039707;28;20179;-69
2023/03/01 02:53:12;;;;;;;9.75;6.47;;;4.30;96.80;;;;;;5057280;28;20176;-69
2023/03/01 02:55:43;;;;;;;8.45;5.90;;;4.30;96.80;;;;;;5052122;28;20169;-69
2023/03/01 02:58:14;;;;;;;8.90;6.22;;;4.30;96.80;;;;;;5053214;28;20259;-69
2023/03/01 03:00:46;;;;;;;8.18;6.13;;;4.30;96.80;;;;;;5036421;28;20179;-69
2023/03/01 03:03:16;;;;;;;7.10;6.10;;;4.30;96.80;;;;;;5055483;28;20176;-69
2023/03/01 03:05:42;;;;;;;6.80;5.75;;;4.30;96.80;;;;;;5070238;28;20180;-69
2023/03/01 03:08:11;;;;;;;6.72;5.50;;;4.30;96.80;;;;;;5071465;28;20215;-69
2023/03/01 03:10:39;;;;;;;7.57;6.32;;;4.30;96.80;;;;;;5067510;28;20703;-69
2023/03/01 03:13:08;;;;;;;7.88;6.55;;;4.30;96.80;;;;;;5038837;28;20528;-69
2023/03/01 03:15:35;;;;;;;9.75;6.10;;;4.20;96.70;;;;;;5068687;28;20264;-69
2023/03/01 03:18:07;;;;;;;9.45;6.32;;;4.30;96.70;;;;;;5044028;28;20215;-69
2023/03/01 03:20:36;;;;;;;6.15;5.55;;;4.20;96.70;;;;;;5068001;28;20272;-69
2023/03/01 03:23:07;;;;;;;7.80;6.20;;;4.20;96.70;;;;;;5052349;28;20180;-69
2023/03/01 03:25:37;;;;;;;10.30;6.60;;;4.20;96.70;;;;;;5037922;28;20264;-69
2023/03/01 03:28:09;;;;;;;8.18;6.47;;;4.20;96.70;;;;;;5071257;28;20311;-69
2023/03/01 03:30:38;;;;;;;8.70;6.57;;;4.20;96.80;;;;;;5069856;28;20177;-69
2023/03/01 03:33:10;;;;;;;8.98;5.90;;;4.20;96.70;;;;;;5072349;28;20214;-69
2023/03/01 03:35:41;;;;;;;9.23;6.68;;;4.20;97.10;;;;;;5032764;28;20276;-69
2023/03/01 03:38:16;;;;;;;9.27;6.85;;;4.20;96.70;;;;;;5051387;28;20222;-69
2023/03/01 03:40:48;;;;;;;8.55;6.35;;;4.20;96.80;;;;;;5052698;28;20680;-69
2023/03/01 03:43:17;;;;;;;6.82;5.97;;;4.20;96.80;;;;;;5052326;28;20920;-69
2023/03/01 03:45:48;;;;;;;7.72;5.80;;;4.20;96.80;;;;;;5052130;28;20242;-69
2023/03/01 03:48:14;;;;;;;7.50;6.25;;;4.20;96.80;;;;;;5052310;28;20200;-69
2023/03/01 03:50:40;;;;;;;5.50;5.00;;;4.20;96.80;;;;;;5062258;28;20703;-69
2023/03/01 03:53:09;;;;;;;6.97;6.03;;;4.20;96.80;;;;;;5071440;28;20179;-68
2023/03/01 03:55:38;;;;;;;6.43;5.65;;;4.20;96.80;;;;;;5068817;28;20164;-69
2023/03/01 03:58:07;;;;;;;8.50;6.13;;;4.10;96.70;;;;;;5071220;28;20737;-69
2023/03/01 04:00:38;;;;;;;6.57;5.88;;;4.20;96.80;;;;;;5054158;28;20675;-69
2023/03/01 04:03:07;;;;;;;11.15;6.38;;;4.10;96.80;;;;;;5070222;28;20516;-69
2023/03/01 04:05:36;;;;;;;7.78;6.05;;;4.10;96.80;;;;;;5061750;28;20180;-69
2023/03/01 04:08:03;;;;;;;7.43;6.18;;;4.10;96.80;;;;;;5034205;28;20239;-69
2023/03/01 04:10:31;;;;;;;7.03;6.20;;;4.10;96.80;;;;;;5070646;28;20168;-69
2023/03/01 04:13:03;;;;;;;7.72;6.40;;;4.10;96.80;;;;;;5054405;28;20179;-69
2023/03/01 04:15:30;;;;;;;8.88;6.50;;;4.10;96.80;;;;;;5072178;28;20180;-69
2023/03/01 04:17:56;;;;;;;8.90;6.45;;;4.10;96.80;;;;;;5034345;28;20196;-69
2023/03/01 04:20:28;;;;;;;7.15;5.50;;;4.10;96.80;;;;;;5044402;28;20176;-69
2023/03/01 04:23:15;;;;;;;6.95;6.20;;;4.10;96.80;;;;;;5029483;28;20565;-69
2023/03/01 04:25:56;;;;;;;7.50;6.18;;;4.10;96.80;;;;;;5052344;28;20177;-69
2023/03/01 04:28:36;;;;;;;7.30;6.40;;;4.10;96.80;;;;;;5050766;28;20216;-69
2023/03/01 04:31:15;;;;;;;7.45;6.20;;;4.10;96.70;;;;;;5066101;28;20956;-69
2023/03/01 04:33:43;;;;;;;6.32;5.72;;;4.10;96.70;;;;;;5051824;28;20240;-69
2023/03/01 04:36:13;;;;;;;8.10;6.10;;;4.00;96.70;;;;;;5066819;28;20197;-69
2023/03/01 04:38:47;;;;;;;9.63;6.22;;;4.00;96.70;;;;;;5037348;28;20233;-69
2023/03/01 04:41:14;;;;;;;7.45;6.20;;;4.00;96.70;;;;;;5071550;28;20215;-69
2023/03/01 04:43:43;;;;;;;11.82;6.53;;;4.00;96.80;;;;;;5061417;28;20184;-69
2023/03/01 04:46:16;;;;;;;10.57;7.28;;;4.00;96.70;;;;;;5061574;28;20203;-69
2023/03/01 04:48:47;;;;;;;10.60;6.50;;;4.00;96.80;;;;;;5071779;28;20337;-69
2023/03/01 04:51:13;;;;;;;8.73;5.78;;;4.00;96.80;;;;;;5060994;28;20196;-69
2023/03/01 04:53:45;;;;;;;7.88;6.30;;;4.00;96.80;;;;;;5050484;28;20228;-69
2023/03/01 04:56:13;;;;;;;6.88;5.90;;;4.00;96.80;;;;;;5036105;28;20740;-69
2023/03/01 04:58:42;;;;;;;9.40;6.47;;;4.00;96.80;;;;;;5037536;28;20673;-69
2023/03/01 05:01:17;;;;;;;8.73;6.78;;;4.00;96.80;;;;;;5050426;28;20167;-69
2023/03/01 05:03:51;;;;;;;8.05;6.75;;;4.00;96.80;;;;;;5064558;28;20715;-69
2023/03/01 05:06:18;;;;;;;6.95;5.93;;;4.00;96.80;;;;;;5070933;28;20187;-69
2023/03/01 05:08:49;;;;;;;9.82;6.60;;;3.90;96.70;;;;;;5069789;28;20556;-68
2023/03/01 05:11:20;;;;;;;9.75;7.18;;;3.90;96.70;;;;;;5054983;28;20646;-68
2023/03/01 05:13:52;;;;;;;7.82;6.72;;;3.90;96.70;;;;;;5055839;28;20164;-69
2023/03/01 05:16:19;;;;;;;8.80;6.90;;;3.90;96.70;;;;;;5055953;28;20192;-69
2023/03/01 05:18:45;;;;;;;8.68;7.35;;;3.90;96.70;;;;;;5071597;28;20196;-70
2023/03/01 05:21:17;;;;;;;8.90;7.25;;;3.90;96.70;;;;;;5055916;28;20164;-70
2023/03/01 05:23:43;;;;;;;6.57;5.40;;;3.90;97.10;;;;;;5054589;28;20203;-70
2023/03/01 05:26:12;;;;;;;8.70;6.90;;;3.90;96.70;;;;;;5021427;28;20179;-71
2023/03/01 05:28:40;;;;;;;9.48;6.88;;;3.90;96.70;;;;;;5055524;28;20466;-71
2023/03/01 05:31:12;;;;;;;8.83;6.83;;;3.90;96.70;;;;;;5038234;28;20179;-71
2023/03/01 05:33:39;;;;;;;8.35;6.88;;;3.90;96.70;;;;;;5054316;28;20473;-71
2023/03/01 05:36:11;;;;;;;9.95;6.63;;;3.90;96.70;;;;;;5054580;28;20180;-71
2023/03/01 05:38:39;;;;;;;8.05;6.50;;;3.90;96.70;;;;;;5054408;28;20207;-71
2023/03/01 05:41:13;;;;;;;8.00;6.30;;;3.90;96.70;;;;;;5037518;28;20202;-71
2023/03/01 05:43:43;;;;;;;8.30;6.28;;;3.90;96.70;;;;;;5055569;28;20566;-71
2023/03/01 05:46:13;;;;;;;7.43;5.97;;;3.80;96.70;;;;;;5037507;28;20192;-71
2023/03/01 05:48:38;;;;;;;7.90;6.88;;;3.80;96.70;;;;;;5053738;28;20749;-71
2023/03/01 05:51:04;;;;;;;6.97;6.00;;;3.80;96.70;;;;;;5053890;28;20169;-71
2023/03/01 05:53:33;;;;;;;8.20;6.28;;;3.80;96.70;;;;;;5056426;28;20470;-70
2023/03/01 05:56:03;;;;;;;7.00;6.30;;;3.80;96.70;;;;;;5072868;28;20629;-70
2023/03/01 05:58:31;;;;;;;7.65;6.85;;;3.80;96.60;;;;;;5052860;28;20204;-71
2023/03/01 06:00:57;;;;;;;8.88;6.68;;;3.80;96.70;;;;;;5052883;28;20234;-71
2023/03/01 06:03:23;;;;;;;7.75;6.20;;;3.80;96.60;;;;;;5036394;28;20203;-71
2023/03/01 06:05:49;;;;;;;8.03;7.10;;;3.80;96.60;;;;;;5054328;28;20165;-71
2023/03/01 06:08:20;;;;;;;6.65;5.68;;;3.80;96.60;;;;;;5053972;28;20531;-71
2023/03/01 06:10:48;;;;;;;9.20;7.18;;;3.80;96.60;;;;;;5054871;28;20448;-70
2023/03/01 06:13:13;;;;;;;7.70;6.80;;;3.80;96.70;;;;;;5055889;28;20635;-68
2023/03/01 06:15:39;;;;;;;7.60;6.47;;;3.80;96.70;;;;;;5055512;28;20432;-68
2023/03/01 06:18:05;;;;;;;10.52;7.05;;;3.80;96.70;;;;;;5072428;28;20214;-70
2023/03/01 06:20:33;;;;;;;11.27;7.67;;;3.70;96.70;;;;;;5071056;28;20156;-68
2023/03/01 06:22:59;;;;;;;8.15;6.35;;;3.70;96.70;;;;;;5072328;28;20437;-68
2023/03/01 06:25:27;;;;;;;8.77;6.85;;;3.70;96.70;;;;;;5038679;28;20250;-68
2023/03/01 06:27:53;;;;;;;8.55;6.85;;;3.70;96.70;;;;;;5072053;28;20212;-69
2023/03/01 06:30:21;;;;;;;7.30;5.60;;;3.70;96.70;;;;;;5055775;28;20171;-68
2023/03/01 06:32:48;;;;;;;8.60;6.85;;;3.70;96.70;;;;;;5072050;28;20419;-68
2023/03/01 06:35:18;;;;;;;8.30;7.28;;;3.70;96.70;;;;;;5055668;28;20168;-68
2023/03/01 06:37:48;;;;;;;8.32;6.60;;;3.70;96.70;;;;;;5055841;28;20235;-68
2023/03/01 06:40:15;;;;;;;8.10;6.25;;;3.70;96.70;;;;;;5072990;28;20170;-69
2023/03/01 06:42:47;;;;;;;8.45;7.13;;;3.60;96.60;;;;;;5055154;28;20176;-68
2023/03/01 06:45:16;;;;;;;8.00;6.68;;;3.60;96.70;;;;;;5055753;28;20190;-68
2023/03/01 06:47:45;;;;;;;9.82;6.65;;;3.60;96.70;;;;;;5072792;28;20310;-68
2023/03/01 06:50:11;;;;;;;9.93;7.20;;;3.60;96.70;;;;;;5071789;28;20515;-68
2023/03/01 06:52:38;;;;;;;12.35;7.57;;;3.70;96.70;;;;;;5070834;28;20200;-68
2023/03/01 06:55:07;;;;;;;8.65;7.18;;;3.60;96.60;;;;;;5072589;28;20151;-68
2023/03/01 06:57:38;;;;;;;8.05;7.07;;;3.60;96.70;;;;;;5072427;28;20211;-68
2023/03/01 07:00:07;;;;;;;12.70;7.50;;;3.60;96.70;;;;;;5071535;28;20341;-68
2023/03/01 07:02:33;;;;;;;11.05;7.88;;;3.60;96.70;;;;;;5054805;28;20215;-68
2023/03/01 07:05:02;;;;;;;8.73;6.77;;;3.60;96.70;;;;;;5071463;28;20199;-68
2023/03/01 07:07:28;;;;;;;9.95;7.40;;;3.60;96.70;;;;;;5054619;28;20476;-68
2023/03/01 07:09:54;;;;;;;10.70;6.70;;;3.60;96.70;;;;;;5054731;28;20308;-68
2023/03/01 07:12:20;;;;;;;10.33;7.73;;;3.60;96.70;;;;;;5053888;28;20449;-69
2023/03/01 07:14:50;;;;;;;8.33;7.10;;;3.60;96.70;;;;;;5071438;28;20406;-68
2023/03/01 07:17:16;;;;;;;10.65;7.65;;;3.60;96.70;;;;;;5072079;28;20434;-68
2023/03/01 07:19:45;;;;;;;9.95;7.20;;;3.60;96.70;;;;;;5072172;28;20248;-68
2023/03/01 07:22:11;;;;;;;11.80;7.68;;;3.60;96.70;;;;;;5070271;28;20648;-69
2023/03/01 07:24:37;;;;;;;11.20;8.13;;;3.60;96.70;;;;;;5068934;28;20669;-68
2023/03/01 07:27:10;;;;;;;7.85;7.05;;;3.60;96.70;;;;;;5072002;28;20262;-68
2023/03/01 07:29:43;;;;;;;9.55;8.18;;;3.60;96.70;;;;;;5066794;28;20188;-69
2023/03/01 07:32:12;;;;;;;11.20;7.60;;;3.60;96.70;;;;;;5070810;28;20174;-69
2023/03/01 07:34:38;;;;;;;10.43;7.05;;;3.60;96.70;;;;;;5072107;28;20191;-69
2023/03/01 07:37:06;;;;;;;8.70;7.20;;;3.50;96.70;;;;;;5052727;28;20191;-68
2023/03/01 07:39:32;;;;;;;10.20;7.25;;;3.50;96.70;;;;;;5034606;28;20226;-69
2023/03/01 07:42:00;;;;;;;9.40;7.82;;;3.60;96.70;;;;;;5063612;28;20183;-69
2023/03/01 07:44:29;;;;;;;10.82;8.02;;;3.60;96.70;;;;;;5058525;28;20245;-69
2023/03/01 07:46:58;;;;;;;10.55;7.45;;;3.50;96.70;;;;;;5034136;28;20200;-68
2023/03/01 07:49:28;;;;;;;9.25;7.30;;;3.50;96.70;;;;;;5050505;28;20162;-68
2023/03/01 07:51:59;;;;;;;11.13;7.57;;;3.50;96.70;;;;;;5034209;28;20233;-69
2023/03/01 07:54:26;;;;;;;7.88;6.75;;;3.50;96.70;;;;;;5034395;28;20157;-68
2023/03/01 07:56:54;;;;;;;10.65;7.95;;;3.50;96.70;;;;;;5050584;28;20219;-68
2023/03/01 07:59:28;;;;;;;11.27;8.65;;;3.50;96.70;;;;;;5050150;28;20169;-69
2023/03/01 08:01:57;;;;;;;9.98;7.80;;;3.50;96.80;;;;;;5070309;28;20229;-69
2023/03/01 08:04:24;;;;;;;8.95;7.55;;;3.50;96.70;;;;;;5070698;28;20179;-69
2023/03/01 08:06:51;;;;;;;10.40;7.32;;;3.50;96.70;;;;;;5071782;28;20191;-68
2023/03/01 08:09:17;;;;;;;13.70;8.93;;;3.50;96.70;;;;;;5071667;28;20388;-69
2023/03/01 08:11:45;;;;;;;9.90;7.93;;;3.50;96.80;;;;;;5069808;28;20552;-68
2023/03/01 08:14:11;;;;;;;12.00;7.20;;;3.50;96.80;;;;;;5037254;28;20236;-69
2023/03/01 08:16:37;;;;;;;11.43;7.97;;;3.50;96.80;;;;;;5070605;28;20159;-68
2023/03/01 08:19:07;;;;;;;10.60;7.93;;;3.50;96.80;;;;;;5053967;28;20192;-69
2023/03/01 08:21:36;;;;;;;9.98;8.07;;;3.50;96.80;;;;;;5071715;28;20398;-69
2023/03/01 08:24:04;;;;;;;9.88;7.35;;;3.50;96.90;;;;;;5071088;28;20202;-68
2023/03/01 08:26:30;;;;;;;15.18;8.00;;;3.50;96.90;;;;;;5070271;28;20167;-69
2023/03/01 08:28:56;;;;;;;10.85;8.63;;;3.50;96.90;;;;;;5059107;28;20200;-69
2023/03/01 08:31:35;;;;;;;9.70;7.70;;;3.50;96.80;;;;;;5051535;28;20164;-68
2023/03/01 08:34:04;;;;;;;9.88;7.80;;;3.50;96.90;;;;;;5061434;28;20191;-69
2023/03/01 08:36:32;;;;;;;11.30;8.00;;;3.50;96.90;;;;;;5070458;28;20160;-69
2023/03/01 08:38:58;;;;;;;10.60;8.38;;;3.50;96.90;;;;;;5053516;28;20234;-69
2023/03/01 08:41:25;;;;;;;11.18;7.75;;;3.50;96.90;;;;;;5071198;28;20160;-69
2023/03/01 08:43:52;;;;;;;12.38;8.70;;;3.50;96.90;;;;;;5073112;28;20168;-69
2023/03/01 08:46:18;;;;;;;8.85;7.78;;;3.50;96.90;;;;;;5057847;28;20651;-69
2023/03/01 08:48:44;;;;;;;9.87;6.97;;;3.50;96.90;;;;;;5036968;28;20216;-69
2023/03/01 08:51:17;;;;;;;11.35;8.50;;;3.50;96.90;;;;;;5021195;28;20908;-69
2023/03/01 08:53:44;;;;;;;8.43;7.07;;;3.50;96.90;;;;;;5073173;28;20478;-69
2023/03/01 08:56:12;;;;;;;11.52;8.68;;;3.50;96.90;;;;;;5075328;28;20192;-68
2023/03/01 08:58:39;;;;;;;11.80;8.10;;;3.50;96.90;;;;;;5073911;28;20645;-68
2023/03/01 09:01:10;;;;;;;12.18;8.38;;;3.50;96.80;;;;;;5041349;28;20807;-69
2023/03/01 09:03:36;;;;;;;11.57;8.48;;;3.50;96.80;;;;;;5021043;28;20180;-68
2023/03/01 09:06:04;;;;;;;11.02;7.93;;;3.50;96.80;;;;;;5054650;28;20630;-68
2023/03/01 09:08:33;;;;;;;11.00;7.90;;;3.50;96.80;;;;;;5037078;28;20243;-69
2023/03/01 09:11:04;;;;;;;13.15;8.60;;;3.50;96.80;;;;;;5059281;28;20259;-68
2023/03/01 09:13:32;;;;;;;12.40;8.55;;;3.50;96.80;;;;;;5070044;28;20262;-69
2023/03/01 09:16:00;;;;;;;11.07;8.40;;;3.50;96.80;;;;;;5073522;28;20166;-69
2023/03/01 09:18:26;;;;;;;12.02;7.80;;;3.60;96.90;;;;;;5074585;28;20695;-69
2023/03/01 09:21:00;;;;;;;10.83;8.10;;;3.60;96.90;;;;;;5073012;28;20164;-69
2023/03/01 09:23:28;;;;;;;11.07;8.50;;;3.60;96.80;;;;;;5073956;28;20440;-69
2023/03/01 09:25:57;;;;;;;12.73;7.95;;;3.60;96.80;;;;;;5074766;28;20619;-69
2023/03/01 09:28:23;;;;;;;10.67;8.60;;;3.60;96.80;;;;;;5073063;28;20218;-69
2023/03/01 09:30:51;;;;;;;11.03;8.03;;;3.60;96.80;;;;;;5073370;28;20793;-69
2023/03/01 09:33:19;;;;;;;11.77;8.05;;;3.60;96.80;;;;;;5073235;28;21108;-69
2023/03/01 09:35:48;;;;;;;11.07;8.18;;;3.60;96.80;;;;;;5070668;28;20206;-69
2023/03/01 09:38:14;;;;;;;10.98;8.15;;;3.70;96.80;;;;;;5073042;28;20191;-69
2023/03/01 09:40:46;;;;;;;12.30;9.10;;;3.70;96.80;;;;;;5074064;28;20617;-68
2023/03/01 09:43:38;;;;;;;9.95;7.95;;;3.70;96.80;;;;;;5073216;28;20538;-69
2023/03/01 09:46:11;;;;;;;11.00;8.43;;;3.70;96.70;;;;;;5056243;28;20207;-68
2023/03/01 09:49:03;;;;;;;12.32;9.05;;;3.70;96.70;;;;;;5072622;28;20694;-69
2023/03/01 09:51:34;;;;;;;14.25;8.20;;;3.70;96.70;;;;;;5056232;28;20278;-69
2023/03/01 09:54:05;;;;;;;10.88;8.15;;;3.80;96.80;;;;;;5072664;28;20246;-69
2023/03/01 09:56:53;;;;;;;11.15;7.95;;;3.80;96.70;;;;;;5074124;28;20164;-69
2023/03/01 09:59:46;;;;;;;10.52;8.00;;;3.80;96.70;;;;;;5074094;28;20183;-69
2023/03/01 10:02:43;;;;;;;12.05;8.05;;;3.80;96.60;;;;;;5072673;28;20186;-69
2023/03/01 10:05:36;;;;;;;9.63;7.53;;;3.90;96.60;;;;;;5073775;28;20703;-69
2023/03/01 10:08:25;;;;;;;11.82;8.57;;;3.90;96.60;;;;;;5053642;28;20637;-69
2023/03/01 10:10:55;;;;;;;11.60;7.97;;;3.90;96.60;;;;;;5062559;28;20191;-69
2023/03/01 10:13:56;;;;;;;12.00;9.00;;;3.90;96.60;;;;;;5072921;28;20172;-69
2023/03/01 10:16:42;;;;;;;11.93;8.23;;;3.90;96.60;;;;;;5041714;28;20200;-69
2023/03/01 10:19:16;;;;;;;9.40;7.75;;;4.00;96.50;;;;;;5072417;28;20571;-69
2023/03/01 10:21:45;;;;;;;13.57;9.00;;;4.00;96.50;;;;;;5071725;28;20180;-69
2023/03/01 10:24:20;;;;;;;11.25;8.50;;;4.00;96.50;;;;;;5055568;28;20183;-69
2023/03/01 10:27:00;;;;;;;11.23;8.68;;;4.00;96.50;;;;;;5071007;28;20667;-69
2023/03/01 10:29:40;;;;;;;11.55;7.95;;;4.10;96.50;;;;;;5055455;28;20190;-69
2023/03/01 10:32:09;;;;;;;10.68;7.70;;;4.10;96.40;;;;;;5072183;28;20203;-69
2023/03/01 10:34:39;;;;;;;12.05;9.15;;;4.10;96.40;;;;;;5072937;28;20438;-69
2023/03/01 10:37:10;;;;;;;11.63;8.32;;;4.10;96.40;;;;;;5073129;28;20179;-69
2023/03/01 10:39:36;;;;;;;11.75;8.18;;;4.20;96.50;;;;;;5072127;28;20183;-69
2023/03/01 10:42:06;;;;;;;10.90;8.23;;;4.20;96.50;;;;;;5071835;28;20283;-69
2023/03/01 10:44:48;;;;;;;12.90;8.25;;;4.20;96.50;;;;;;5071738;28;20198;-69
2023/03/01 10:47:25;;;;;;;10.15;7.60;;;4.20;96.40;;;;;;5071865;28;20226;-69
2023/03/01 10:49:53;;;;;;;13.18;8.77;;;4.20;96.30;;;;;;5071497;28;20171;-69
2023/03/01 10:52:31;;;;;;;11.10;8.18;;;4.30;96.30;;;;;;5071907;28;20676;-69
2023/03/01 10:55:24;;;;;;;11.48;8.50;;;4.30;96.30;;;;;;5071692;28;20259;-69
2023/03/01 10:58:07;;;;;;;11.00;7.90;;;4.30;96.20;;;;;;5069476;28;20222;-69
2023/03/01 11:00:56;;;;;;;11.27;8.60;;;4.30;96.20;;;;;;5054926;28;20210;-70
2023/03/01 11:03:26;;;;;;;10.63;7.75;;;4.40;96.20;;;;;;5071951;28;20204;-69
2023/03/01 11:06:02;;;;;;;9.50;7.63;;;4.40;96.50;;;;;;5038473;28;20217;-69
2023/03/01 11:08:54;;;;;;;10.32;7.78;;;4.40;96.10;;;;;;5055792;28;20227;-69
2023/03/01 11:11:25;;;;;;;10.20;7.57;;;4.50;96.10;;;;;;5072794;28;20203;-69
2023/03/01 11:13:58;;;;;;;9.93;7.00;;;4.50;96.00;;;;;;5071561;28;20229;-69
2023/03/01 11:16:28;;;;;;;10.32;7.65;;;4.50;96.00;;;;;;5072445;28;20263;-69
2023/03/01 11:18:59;;;;;;;13.50;7.57;;;4.50;96.00;;;;;;5072263;28;20279;-69
2023/03/01 11:21:30;;;;;;;10.15;6.97;;;4.50;96.00;;;;;;5034657;28;20188;-69
2023/03/01 11:24:00;;;;;;;10.20;7.15;;;4.50;96.10;;;;;;5032767;28;20595;-69
2023/03/01 11:26:28;;;;;;;8.45;6.10;;;4.60;96.20;;;;;;5050846;28;20671;-69
2023/03/01 11:29:03;;;;;;;10.75;7.68;;;4.60;96.20;;;;;;5052141;28;20204;-69
2023/03/01 11:31:30;;;;;;;9.98;7.00;;;4.60;96.10;;;;;;5052196;28;20283;-69
2023/03/01 11:34:08;;;;;;;11.30;7.50;;;4.60;96.10;;;;;;5050592;28;20271;-69
2023/03/01 11:36:53;;;;;;;11.45;8.07;;;4.70;96.10;;;;;;5050702;28;20697;-69
2023/03/01 11:39:51;;;;;;;8.40;6.60;;;4.70;96.10;;;;;;5052245;28;20208;-69
2023/03/01 11:42:58;;;;;;;8.18;6.47;;;4.70;96.00;;;;;;5052318;28;20184;-70
2023/03/01 11:45:28;;;;;;;7.47;6.22;;;4.70;96.00;;;;;;5034619;28;20279;-69
2023/03/01 11:48:06;;;;;;;9.48;7.22;;;4.80;96.00;;;;;;5051480;28;20209;-69
2023/03/01 11:50:50;;;;;;;9.20;7.20;;;4.80;96.00;;;;;;5050426;28;20591;-69
2023/03/01 11:53:36;;;;;;;9.73;6.75;;;4.80;96.00;;;;;;5050331;28;20263;-69
2023/03/01 11:56:29;;;;;;;8.63;6.75;;;4.80;95.90;;;;;;5052124;28;20200;-69
2023/03/01 11:58:58;;;;;;;7.85;6.10;;;4.80;95.90;;;;;;5051900;28;20677;-68
2023/03/01 12:01:37;;;;;;;12.35;7.60;;;4.90;95.90;;;;;;5050243;28;20169;-68
2023/03/01 12:04:30;;;;;;;9.73;7.20;;;4.90;95.90;;;;;;5051974;28;20168;-68
2023/03/01 12:07:09;;;;;;;8.82;6.65;;;5.00;95.60;;;;;;5050531;28;20199;-68
2023/03/01 12:09:40;;;;;;;12.88;8.20;;;5.00;95.40;;;;;;5050558;28;20197;-68
2023/03/01 12:12:48;;;;;;;12.77;7.05;;;5.00;95.30;;;;;;5052781;28;20172;-69
2023/03/01 12:15:33;;;;;;;9.48;7.25;;;5.00;95.30;;;;;;5055610;28;20688;-68
2023/03/01 12:18:36;;;;;;;10.43;7.22;;;5.00;95.30;;;;;;5070506;28;20192;-69
2023/03/01 12:21:21;;;;;;;8.55;6.07;;;5.00;95.30;;;;;;5075167;28;20175;-69
2023/03/01 12:24:05;;;;;;;9.98;6.53;;;5.10;95.30;;;;;;5058108;28;20630;-68
2023/03/01 12:26:37;;;;;;;9.10;6.75;;;5.10;95.40;;;;;;5075693;28;20641;-69
2023/03/01 12:29:25;;;;;;;8.07;6.88;;;5.10;95.40;;;;;;5074495;28;20206;-69
2023/03/01 12:32:25;;;;;;;8.18;6.15;;;5.10;95.40;;;;;;5075007;28;20176;-68
2023/03/01 12:35:13;;;;;;;8.55;6.20;;;5.10;95.30;;;;;;5075465;28;20242;-68
2023/03/01 12:37:48;;;;;;;10.05;6.75;;;5.10;95.30;;;;;;5075650;28;20282;-68
2023/03/01 12:40:38;;;;;;;8.85;6.78;;;5.20;95.30;;;;;;5074563;28;20250;-68
2023/03/01 12:43:27;;;;;;;12.23;6.57;;;5.20;95.20;;;;;;5054770;28;20244;-68
2023/03/01 12:46:10;;;;;;;7.97;5.70;;;5.20;95.20;;;;;;5054299;28;20666;-68
2023/03/01 12:49:08;;;;;;;8.48;6.30;;;5.20;95.10;;;;;;5054305;28;20255;-68
2023/03/01 12:51:46;;;;;;;6.55;5.80;;;5.20;95.10;;;;;;5053394;28;20225;-68
2023/03/01 12:54:23;;;;;;;9.98;7.40;;;5.30;95.10;;;;;;5062822;28;20195;-68
2023/03/01 12:56:54;;;;;;;6.78;5.50;;;5.30;95.10;;;;;;5057813;28;20164;-69
2023/03/01 12:59:26;;;;;;;6.95;5.85;;;5.30;95.00;;;;;;5075247;28;20171;-68
2023/03/01 13:02:23;;;;;;;12.65;6.68;;;5.30;94.90;;;;;;5075122;28;20644;-69
2023/03/01 13:05:11;;;;;;;10.35;6.18;;;5.30;94.80;;;;;;5073960;28;20160;-68
2023/03/01 13:07:44;;;;;;;8.70;6.50;;;5.30;94.80;;;;;;5059305;28;20330;-69
2023/03/01 13:10:16;;;;;;;8.68;6.75;;;5.40;94.80;;;;;;5072413;28;20585;-68
2023/03/01 13:12:52;;;;;;;14.15;7.13;;;5.40;94.80;;;;;;5055458;28;20218;-67
2023/03/01 13:15:37;;;;;;;7.80;5.97;;;5.40;94.80;;;;;;5054817;28;20546;-67
2023/03/01 13:18:21;;;;;;;6.80;5.85;;;5.40;94.80;;;;;;5054450;28;20216;-68